createdAt,value
2022-09-20T00:00:00.216Z,0
2022-09-20T00:05:00.305Z,0
2022-09-20T00:10:00.174Z,0
2022-09-20T00:15:00.171Z,0
2022-09-20T00:20:00.173Z,0
2022-09-20T00:25:00.172Z,0
2022-09-20T00:30:00.225Z,0
2022-09-20T00:35:00.160Z,0
2022-09-20T00:40:00.300Z,0
2022-09-20T00:45:00.158Z,0
2022-09-20T00:50:00.176Z,0
2022-09-20T00:55:00.195Z,0
2022-09-20T01:00:00.244Z,0
2022-09-20T01:05:00.177Z,0
2022-09-20T01:10:00.180Z,0
2022-09-20T01:15:00.202Z,0
2022-09-20T01:20:00.201Z,0
2022-09-20T01:25:00.173Z,0
2022-09-20T01:30:00.188Z,0
2022-09-20T01:35:00.178Z,0
2022-09-20T01:40:00.276Z,0
2022-09-20T01:45:00.181Z,0
2022-09-20T01:50:00.174Z,0
2022-09-20T01:55:00.183Z,0
2022-09-20T02:00:00.194Z,0
2022-09-20T02:05:00.165Z,0
2022-09-20T02:10:00.169Z,0
2022-09-20T02:15:00.185Z,0
2022-09-20T02:20:00.180Z,0
2022-09-20T02:25:00.174Z,0
2022-09-20T02:30:00.192Z,0
2022-09-20T02:35:00.182Z,0
2022-09-20T02:40:00.245Z,0
2022-09-20T02:45:00.178Z,0
2022-09-20T02:50:00.205Z,0
2022-09-20T02:55:00.175Z,0
2022-09-20T03:00:00.260Z,0
2022-09-20T03:05:00.191Z,0
2022-09-20T03:10:00.209Z,0
2022-09-20T03:15:00.179Z,0
2022-09-20T03:20:00.172Z,0
2022-09-20T03:25:00.185Z,0
2022-09-20T03:30:00.227Z,0
2022-09-20T03:35:00.193Z,0
2022-09-20T03:40:00.287Z,0
2022-09-20T03:45:00.218Z,0
2022-09-20T03:50:00.182Z,0
2022-09-20T03:55:00.156Z,0
2022-09-20T04:00:00.242Z,0
2022-09-20T04:05:00.182Z,0
2022-09-20T04:10:00.185Z,0
2022-09-20T04:15:00.184Z,0
2022-09-20T04:20:00.186Z,0
2022-09-20T04:25:00.183Z,0
2022-09-20T04:30:00.213Z,0
2022-09-20T04:35:00.180Z,0
2022-09-20T04:40:00.353Z,0
2022-09-20T04:45:00.178Z,0
2022-09-20T04:50:00.197Z,0
2022-09-20T04:55:00.170Z,0
2022-09-20T05:00:00.227Z,10
2022-09-20T05:05:00.192Z,24
2022-09-20T05:10:00.191Z,38
2022-09-20T05:15:00.187Z,53
2022-09-20T05:20:00.181Z,75
2022-09-20T05:25:00.190Z,105
2022-09-20T05:30:05.047Z,204
2022-09-20T05:35:00.190Z,396
2022-09-20T05:40:00.272Z,528
2022-09-20T05:45:00.185Z,595
2022-09-20T05:50:00.194Z,757
2022-09-20T05:55:00.197Z,1079
2022-09-20T06:00:00.226Z,1368
2022-09-20T06:05:00.197Z,1739
2022-09-20T06:10:00.202Z,1368
2022-09-20T06:15:00.198Z,1987
2022-09-20T06:20:00.176Z,1987
2022-09-20T06:25:00.183Z,1383
2022-09-20T06:30:00.181Z,1383
2022-09-20T06:35:00.187Z,1230
2022-09-20T06:40:00.233Z,1089
2022-09-20T06:45:00.183Z,1224
2022-09-20T06:50:00.184Z,2003
2022-09-20T06:55:00.192Z,2251
2022-09-20T07:00:00.209Z,2543
2022-09-20T07:05:00.186Z,3223
2022-09-20T07:10:00.176Z,2863
2022-09-20T07:15:00.183Z,3625
2022-09-20T07:20:00.176Z,4088
2022-09-20T07:25:00.191Z,5252
2022-09-20T07:30:00.161Z,7556
2022-09-20T07:35:00.176Z,7556
2022-09-20T07:40:00.286Z,5230
2022-09-20T07:45:00.175Z,6685
2022-09-20T07:50:00.199Z,6685
2022-09-20T07:55:00.180Z,8519
2022-09-20T08:00:00.204Z,7532
2022-09-20T08:05:00.179Z,7561
2022-09-20T08:10:00.173Z,8519
2022-09-20T08:15:00.172Z,10713
2022-09-20T08:20:00.193Z,32614
2022-09-20T08:25:00.175Z,19112
2022-09-20T08:30:00.177Z,23594
2022-09-20T08:35:00.211Z,13725
2022-09-20T08:40:00.478Z,7642
2022-09-20T08:45:00.652Z,6755
2022-09-20T08:50:00.657Z,5276
2022-09-20T08:55:00.189Z,4849
2022-09-20T09:00:00.216Z,5932
2022-09-20T09:05:00.184Z,9559
2022-09-20T09:10:00.169Z,15262
2022-09-20T09:15:00.184Z,18344
2022-09-20T09:20:00.189Z,41754
2022-09-20T09:25:00.166Z,20907
2022-09-20T09:30:00.184Z,27302
2022-09-20T09:35:00.184Z,16278
2022-09-20T09:40:00.281Z,11184
2022-09-20T09:45:00.158Z,9949
2022-09-20T09:50:02.895Z,30613
2022-09-20T09:55:02.687Z,53716
2022-09-20T10:00:01.774Z,54100
2022-09-20T10:05:00.169Z,47577
2022-09-20T10:10:00.209Z,33350
2022-09-20T10:15:00.168Z,9116
2022-09-20T10:20:00.192Z,48473
2022-09-20T10:25:00.184Z,40888
2022-09-20T10:30:00.189Z,17616
2022-09-20T10:35:00.165Z,39582
2022-09-20T10:40:00.341Z,39582
2022-09-20T10:45:00.159Z,37609
2022-09-20T10:50:00.179Z,35156
2022-09-20T10:55:00.209Z,11784
2022-09-20T11:00:00.210Z,4475
2022-09-20T11:05:00.177Z,16955
2022-09-20T11:10:00.203Z,24378
2022-09-20T11:15:00.170Z,24378
2022-09-20T11:20:04.744Z,21463
2022-09-20T11:25:00.177Z,8517
2022-09-20T11:30:00.182Z,6615
2022-09-20T11:35:00.172Z,4080
2022-09-20T11:40:00.333Z,3864
2022-09-20T11:45:00.181Z,5950
2022-09-20T11:50:00.170Z,5950
2022-09-20T11:55:00.188Z,5282
2022-09-20T12:00:00.221Z,4697
2022-09-20T12:05:00.164Z,3702
2022-09-20T12:10:00.185Z,3702
2022-09-20T12:15:00.184Z,3702
2022-09-20T12:20:00.224Z,4167
2022-09-20T12:25:00.184Z,5266
2022-09-20T12:30:00.189Z,5924
2022-09-20T12:35:00.189Z,6022
2022-09-20T12:40:00.258Z,6022
2022-09-20T12:45:00.159Z,5247
2022-09-20T12:50:00.178Z,4119
2022-09-20T12:55:04.611Z,2246
2022-09-20T13:00:00.211Z,1986
2022-09-20T13:05:00.191Z,2850
2022-09-20T13:10:00.171Z,3600
2022-09-20T13:15:00.169Z,4053
2022-09-20T13:20:00.175Z,4567
2022-09-20T13:25:00.193Z,4567
2022-09-20T13:30:00.182Z,4444
2022-09-20T13:35:00.183Z,6845
2022-09-20T13:40:00.307Z,6781
2022-09-20T13:45:00.193Z,6034
2022-09-20T13:50:00.195Z,5890
2022-09-20T13:55:00.171Z,5656
2022-09-20T14:00:00.209Z,5315
2022-09-20T14:05:00.148Z,5315
2022-09-20T14:10:00.283Z,4727
2022-09-20T14:15:00.188Z,4203
2022-09-20T14:20:00.219Z,4203
2022-09-20T14:25:00.217Z,3845
2022-09-20T14:30:00.199Z,3845
2022-09-20T14:35:00.216Z,3845
2022-09-20T14:40:00.269Z,2833
2022-09-20T14:45:00.184Z,2496
2022-09-20T14:50:00.346Z,2206
2022-09-20T14:55:00.234Z,2499
2022-09-20T15:00:00.342Z,2207
2022-09-20T15:10:00.227Z,3643
2022-09-20T15:15:00.199Z,3656
2022-09-20T15:20:00.206Z,3656
2022-09-20T15:25:00.209Z,3125
2022-09-20T15:30:00.189Z,3125
2022-09-20T15:35:00.188Z,1908
2022-09-20T15:40:00.289Z,1773
2022-09-20T15:45:00.211Z,3148
2022-09-20T15:50:00.262Z,2907
2022-09-20T15:55:00.203Z,2907
2022-09-20T16:00:00.281Z,2586
2022-09-20T16:05:00.231Z,2586
2022-09-20T16:10:00.224Z,2259
2022-09-20T16:15:00.184Z,2259
2022-09-20T16:20:00.215Z,2259
2022-09-20T16:25:00.197Z,2045
2022-09-20T16:30:00.217Z,1820
2022-09-20T16:35:00.274Z,1616
2022-09-20T16:40:00.292Z,1274
2022-09-20T16:45:00.224Z,1131
2022-09-20T16:50:00.173Z,1004
2022-09-20T16:55:00.206Z,892
2022-09-20T17:00:00.248Z,792
2022-09-20T17:05:00.327Z,675
2022-09-20T17:10:00.201Z,625
2022-09-20T17:15:00.209Z,556
2022-09-20T17:20:00.203Z,401
2022-09-20T17:25:00.176Z,289
2022-09-20T17:30:00.218Z,208
2022-09-20T17:35:00.199Z,148
2022-09-20T17:40:00.296Z,105
2022-09-20T17:45:00.197Z,63
2022-09-20T17:50:00.201Z,32
2022-09-20T17:55:00.211Z,18
2022-09-20T18:00:00.223Z,8
2022-09-20T18:05:00.213Z,4
2022-09-20T18:10:00.192Z,4
2022-09-20T18:15:00.199Z,4
2022-09-20T18:20:00.208Z,4
2022-09-20T18:25:00.268Z,4
2022-09-20T18:30:00.199Z,4
2022-09-20T18:35:00.186Z,4
2022-09-20T18:40:00.342Z,4
2022-09-20T18:45:00.184Z,4
2022-09-20T18:50:00.212Z,4
2022-09-20T18:55:00.215Z,0
2022-09-20T19:00:03.695Z,0
2022-09-20T19:05:00.195Z,0
2022-09-20T19:10:00.188Z,0
2022-09-20T19:15:00.196Z,0
2022-09-20T19:20:00.198Z,0
2022-09-20T19:25:00.208Z,0
2022-09-20T19:30:00.192Z,0
2022-09-20T19:35:00.185Z,0
2022-09-20T19:40:00.382Z,0
2022-09-20T19:45:00.201Z,0
2022-09-20T19:50:00.179Z,0
2022-09-20T19:55:00.194Z,0
2022-09-20T20:00:00.270Z,0
2022-09-20T20:05:00.207Z,0
2022-09-20T20:10:00.162Z,0
2022-09-20T20:15:00.182Z,0
2022-09-20T20:20:00.189Z,0
2022-09-20T20:25:00.168Z,0
2022-09-20T20:30:00.186Z,0
2022-09-20T20:35:00.157Z,0
2022-09-20T20:40:00.305Z,0
2022-09-20T20:45:00.162Z,0
2022-09-20T20:50:00.167Z,0
2022-09-20T20:55:00.166Z,0
2022-09-20T21:00:00.206Z,0
2022-09-20T21:05:00.170Z,0
2022-09-20T21:10:00.210Z,0
2022-09-20T21:15:00.165Z,0
2022-09-20T21:20:00.198Z,0
2022-09-20T21:25:00.174Z,0
2022-09-20T21:30:00.209Z,0
2022-09-20T21:35:00.162Z,0
2022-09-20T21:40:00.302Z,0
2022-09-20T21:45:00.189Z,0
2022-09-20T21:50:00.191Z,0
2022-09-20T21:55:00.187Z,0
2022-09-20T22:00:00.241Z,0
2022-09-20T22:05:00.199Z,0
2022-09-20T22:10:00.186Z,0
2022-09-20T22:15:00.184Z,0
2022-09-20T22:20:00.227Z,0
2022-09-20T22:25:00.224Z,0
2022-09-20T22:30:04.609Z,0
2022-09-20T22:35:00.205Z,0
2022-09-20T22:40:00.309Z,0
2022-09-20T22:45:00.265Z,0
2022-09-20T22:50:00.213Z,0
2022-09-20T22:55:00.239Z,0
2022-09-20T23:00:00.237Z,0
2022-09-20T23:05:00.228Z,0
2022-09-20T23:10:00.222Z,0
2022-09-20T23:15:00.251Z,0
2022-09-20T23:20:00.272Z,0
2022-09-20T23:25:00.232Z,0
2022-09-20T23:30:00.250Z,0
2022-09-20T23:35:00.225Z,0
2022-09-20T23:40:00.380Z,0
2022-09-20T23:45:00.252Z,0
2022-09-20T23:50:00.221Z,0
2022-09-20T23:55:00.265Z,0
